sensor_id;sensor_type;location;lat;lon;timestamp;temperature;humidity
31819;DHT22;18384;48.860;9.188;2023-04-03T00:01:03;6.50;95.00
31819;DHT22;18384;48.860;9.188;2023-04-03T00:03:29;6.50;94.90
31819;DHT22;18384;48.860;9.188;2023-04-03T00:05:55;6.50;95.00
31819;DHT22;18384;48.860;9.188;2023-04-03T00:08:22;6.50;95.00
31819;DHT22;18384;48.860;9.188;2023-04-03T00:10:48;6.50;95.00
31819;DHT22;18384;48.860;9.188;2023-04-03T00:13:14;6.50;94.90
31819;DHT22;18384;48.860;9.188;2023-04-03T00:15:40;6.60;95.00
31819;DHT22;18384;48.860;9.188;2023-04-03T00:18:06;6.50;95.10
31819;DHT22;18384;48.860;9.188;2023-04-03T00:20:33;6.60;95.00
31819;DHT22;18384;48.860;9.188;2023-04-03T00:23:01;6.60;94.90
31819;DHT22;18384;48.860;9.188;2023-04-03T00:25:28;6.50;95.00
31819;DHT22;18384;48.860;9.188;2023-04-03T00:27:54;6.60;95.20
31819;DHT22;18384;48.860;9.188;2023-04-03T00:30:21;6.60;94.80
31819;DHT22;18384;48.860;9.188;2023-04-03T00:32:49;6.60;95.10
31819;DHT22;18384;48.860;9.188;2023-04-03T00:35:18;6.70;95.00
31819;DHT22;18384;48.860;9.188;2023-04-03T00:37:46;6.60;94.90
31819;DHT22;18384;48.860;9.188;2023-04-03T00:40:14;6.60;94.60
31819;DHT22;18384;48.860;9.188;2023-04-03T00:42:41;6.50;94.80
31819;DHT22;18384;48.860;9.188;2023-04-03T00:46:09;6.60;95.00
31819;DHT22;18384;48.860;9.188;2023-04-03T00:48:43;6.50;94.90
31819;DHT22;18384;48.860;9.188;2023-04-03T00:51:18;6.60;94.80
31819;DHT22;18384;48.860;9.188;2023-04-03T00:53:49;6.50;94.90
31819;DHT22;18384;48.860;9.188;2023-04-03T00:56:19;6.40;94.90
31819;DHT22;18384;48.860;9.188;2023-04-03T00:58:51;6.40;95.10
31819;DHT22;18384;48.860;9.188;2023-04-03T01:01:26;6.40;95.00
31819;DHT22;18384;48.860;9.188;2023-04-03T01:03:54;6.50;95.10
31819;DHT22;18384;48.860;9.188;2023-04-03T01:06:24;6.40;95.00
31819;DHT22;18384;48.860;9.188;2023-04-03T01:08:52;6.40;95.00
31819;DHT22;18384;48.860;9.188;2023-04-03T01:11:19;6.40;95.00
31819;DHT22;18384;48.860;9.188;2023-04-03T01:13:47;6.40;95.10
31819;DHT22;18384;48.860;9.188;2023-04-03T01:16:13;6.40;95.10
31819;DHT22;18384;48.860;9.188;2023-04-03T01:18:40;6.40;95.10
31819;DHT22;18384;48.860;9.188;2023-04-03T01:24:36;6.30;95.30
31819;DHT22;18384;48.860;9.188;2023-04-03T01:27:06;6.30;95.10
31819;DHT22;18384;48.860;9.188;2023-04-03T01:29:33;6.20;95.30
31819;DHT22;18384;48.860;9.188;2023-04-03T01:32:01;6.20;95.30
31819;DHT22;18384;48.860;9.188;2023-04-03T01:34:29;6.10;95.20
31819;DHT22;18384;48.860;9.188;2023-04-03T01:36:55;6.10;95.30
31819;DHT22;18384;48.860;9.188;2023-04-03T01:39:22;6.10;95.30
31819;DHT22;18384;48.860;9.188;2023-04-03T01:41:48;6.10;95.40
31819;DHT22;18384;48.860;9.188;2023-04-03T01:44:14;6.00;95.40
31819;DHT22;18384;48.860;9.188;2023-04-03T01:46:41;6.10;95.40
31819;DHT22;18384;48.860;9.188;2023-04-03T01:49:09;6.10;95.40
31819;DHT22;18384;48.860;9.188;2023-04-03T01:51:35;6.10;95.30
31819;DHT22;18384;48.860;9.188;2023-04-03T01:54:01;6.10;95.30
31819;DHT22;18384;48.860;9.188;2023-04-03T01:56:27;6.10;95.20
31819;DHT22;18384;48.860;9.188;2023-04-03T01:58:53;6.10;95.20
31819;DHT22;18384;48.860;9.188;2023-04-03T02:01:19;6.10;95.30
31819;DHT22;18384;48.860;9.188;2023-04-03T02:03:46;6.10;95.30
31819;DHT22;18384;48.860;9.188;2023-04-03T02:06:12;6.10;95.00
31819;DHT22;18384;48.860;9.188;2023-04-03T02:08:38;6.10;95.10
31819;DHT22;18384;48.860;9.188;2023-04-03T02:11:05;6.10;94.90
31819;DHT22;18384;48.860;9.188;2023-04-03T02:13:31;6.10;95.10
31819;DHT22;18384;48.860;9.188;2023-04-03T02:15:58;6.10;94.90
31819;DHT22;18384;48.860;9.188;2023-04-03T02:18:25;6.10;95.00
31819;DHT22;18384;48.860;9.188;2023-04-03T02:20:51;6.10;94.60
31819;DHT22;18384;48.860;9.188;2023-04-03T02:23:17;6.00;94.50
31819;DHT22;18384;48.860;9.188;2023-04-03T02:25:43;6.00;94.70
31819;DHT22;18384;48.860;9.188;2023-04-03T02:28:09;6.00;94.20
31819;DHT22;18384;48.860;9.188;2023-04-03T02:30:35;6.00;94.00
31819;DHT22;18384;48.860;9.188;2023-04-03T02:33:01;6.00;93.80
31819;DHT22;18384;48.860;9.188;2023-04-03T02:35:27;6.00;93.50
31819;DHT22;18384;48.860;9.188;2023-04-03T02:37:54;5.90;93.40
31819;DHT22;18384;48.860;9.188;2023-04-03T02:40:20;5.90;93.50
31819;DHT22;18384;48.860;9.188;2023-04-03T02:42:46;6.00;93.20
31819;DHT22;18384;48.860;9.188;2023-04-03T02:45:12;5.90;93.00
31819;DHT22;18384;48.860;9.188;2023-04-03T02:47:38;5.90;92.90
31819;DHT22;18384;48.860;9.188;2023-04-03T02:50:05;6.00;92.80
31819;DHT22;18384;48.860;9.188;2023-04-03T02:52:31;5.90;92.80
31819;DHT22;18384;48.860;9.188;2023-04-03T02:54:57;5.90;92.80
31819;DHT22;18384;48.860;9.188;2023-04-03T02:57:23;5.90;92.80
31819;DHT22;18384;48.860;9.188;2023-04-03T02:59:49;5.90;92.80
31819;DHT22;18384;48.860;9.188;2023-04-03T03:02:15;5.90;92.80
31819;DHT22;18384;48.860;9.188;2023-04-03T03:04:41;5.90;93.00
31819;DHT22;18384;48.860;9.188;2023-04-03T03:07:08;5.90;93.00
31819;DHT22;18384;48.860;9.188;2023-04-03T03:09:34;5.90;92.90
31819;DHT22;18384;48.860;9.188;2023-04-03T03:12:00;5.90;93.00
31819;DHT22;18384;48.860;9.188;2023-04-03T03:14:26;5.80;93.00
31819;DHT22;18384;48.860;9.188;2023-04-03T03:16:52;5.90;93.00
31819;DHT22;18384;48.860;9.188;2023-04-03T03:19:18;5.90;93.00
31819;DHT22;18384;48.860;9.188;2023-04-03T03:21:44;5.90;93.00
31819;DHT22;18384;48.860;9.188;2023-04-03T03:24:10;5.90;93.10
31819;DHT22;18384;48.860;9.188;2023-04-03T03:26:37;5.90;93.20
31819;DHT22;18384;48.860;9.188;2023-04-03T03:29:03;6.00;93.20
31819;DHT22;18384;48.860;9.188;2023-04-03T03:31:29;6.00;93.20
31819;DHT22;18384;48.860;9.188;2023-04-03T03:33:55;6.00;93.20
31819;DHT22;18384;48.860;9.188;2023-04-03T03:36:22;5.90;93.10
31819;DHT22;18384;48.860;9.188;2023-04-03T03:38:48;6.00;93.20
31819;DHT22;18384;48.860;9.188;2023-04-03T03:41:14;6.00;93.40
31819;DHT22;18384;48.860;9.188;2023-04-03T03:43:40;6.00;93.30
31819;DHT22;18384;48.860;9.188;2023-04-03T03:46:06;6.00;93.30
31819;DHT22;18384;48.860;9.188;2023-04-03T03:48:32;6.00;93.50
31819;DHT22;18384;48.860;9.188;2023-04-03T03:50:58;5.90;93.20
31819;DHT22;18384;48.860;9.188;2023-04-03T03:53:24;5.90;93.20
31819;DHT22;18384;48.860;9.188;2023-04-03T03:55:51;5.90;93.20
31819;DHT22;18384;48.860;9.188;2023-04-03T03:58:17;5.80;93.30
31819;DHT22;18384;48.860;9.188;2023-04-03T04:00:43;5.90;93.40
31819;DHT22;18384;48.860;9.188;2023-04-03T04:03:09;6.00;93.20
31819;DHT22;18384;48.860;9.188;2023-04-03T04:05:35;5.90;93.00
31819;DHT22;18384;48.860;9.188;2023-04-03T04:08:01;5.80;92.90
31819;DHT22;18384;48.860;9.188;2023-04-03T04:10:27;5.80;92.90
31819;DHT22;18384;48.860;9.188;2023-04-03T04:12:53;5.80;92.90
31819;DHT22;18384;48.860;9.188;2023-04-03T04:15:20;5.80;92.80
31819;DHT22;18384;48.860;9.188;2023-04-03T04:17:47;5.80;92.90
31819;DHT22;18384;48.860;9.188;2023-04-03T04:20:13;6.00;93.00
31819;DHT22;18384;48.860;9.188;2023-04-03T04:22:39;6.00;93.00
31819;DHT22;18384;48.860;9.188;2023-04-03T04:25:06;6.10;92.70
31819;DHT22;18384;48.860;9.188;2023-04-03T04:27:33;6.10;93.00
31819;DHT22;18384;48.860;9.188;2023-04-03T04:29:59;6.10;92.80
31819;DHT22;18384;48.860;9.188;2023-04-03T04:32:26;6.10;93.20
31819;DHT22;18384;48.860;9.188;2023-04-03T04:34:52;6.10;92.70
31819;DHT22;18384;48.860;9.188;2023-04-03T04:37:18;6.00;91.80
31819;DHT22;18384;48.860;9.188;2023-04-03T04:39:44;6.10;92.10
31819;DHT22;18384;48.860;9.188;2023-04-03T04:42:10;6.10;91.90
31819;DHT22;18384;48.860;9.188;2023-04-03T04:44:39;6.10;91.60
31819;DHT22;18384;48.860;9.188;2023-04-03T04:47:05;6.00;91.70
31819;DHT22;18384;48.860;9.188;2023-04-03T04:49:31;6.00;91.60
31819;DHT22;18384;48.860;9.188;2023-04-03T04:51:57;6.00;91.80
31819;DHT22;18384;48.860;9.188;2023-04-03T04:54:23;6.00;91.90
31819;DHT22;18384;48.860;9.188;2023-04-03T04:56:49;6.10;91.90
31819;DHT22;18384;48.860;9.188;2023-04-03T04:59:15;6.10;92.00
31819;DHT22;18384;48.860;9.188;2023-04-03T05:01:41;6.20;91.90
31819;DHT22;18384;48.860;9.188;2023-04-03T05:04:07;6.20;91.90
31819;DHT22;18384;48.860;9.188;2023-04-03T05:06:35;6.20;91.90
31819;DHT22;18384;48.860;9.188;2023-04-03T05:09:01;6.10;91.80
31819;DHT22;18384;48.860;9.188;2023-04-03T05:11:27;6.10;92.10
31819;DHT22;18384;48.860;9.188;2023-04-03T05:13:53;6.00;92.00
31819;DHT22;18384;48.860;9.188;2023-04-03T05:16:20;6.00;92.20
31819;DHT22;18384;48.860;9.188;2023-04-03T05:18:46;5.90;92.30
31819;DHT22;18384;48.860;9.188;2023-04-03T05:21:12;5.90;92.40
31819;DHT22;18384;48.860;9.188;2023-04-03T05:23:38;6.00;92.30
31819;DHT22;18384;48.860;9.188;2023-04-03T05:26:04;5.90;92.30
31819;DHT22;18384;48.860;9.188;2023-04-03T05:28:31;5.90;92.20
31819;DHT22;18384;48.860;9.188;2023-04-03T05:30:58;5.90;92.40
31819;DHT22;18384;48.860;9.188;2023-04-03T05:33:25;5.90;92.60
31819;DHT22;18384;48.860;9.188;2023-04-03T05:35:52;5.90;92.90
31819;DHT22;18384;48.860;9.188;2023-04-03T05:38:19;5.80;93.10
31819;DHT22;18384;48.860;9.188;2023-04-03T05:40:46;5.70;93.30
31819;DHT22;18384;48.860;9.188;2023-04-03T05:43:12;5.70;93.30
31819;DHT22;18384;48.860;9.188;2023-04-03T05:45:38;5.70;93.20
31819;DHT22;18384;48.860;9.188;2023-04-03T05:48:04;5.70;93.10
31819;DHT22;18384;48.860;9.188;2023-04-03T05:50:30;5.70;93.20
31819;DHT22;18384;48.860;9.188;2023-04-03T05:52:57;5.60;93.20
31819;DHT22;18384;48.860;9.188;2023-04-03T05:55:24;5.60;93.10
31819;DHT22;18384;48.860;9.188;2023-04-03T05:57:50;5.70;93.10
31819;DHT22;18384;48.860;9.188;2023-04-03T06:00:17;5.70;92.90
31819;DHT22;18384;48.860;9.188;2023-04-03T06:02:43;5.70;92.80
31819;DHT22;18384;48.860;9.188;2023-04-03T06:05:10;5.70;92.70
31819;DHT22;18384;48.860;9.188;2023-04-03T06:07:37;5.80;92.90
31819;DHT22;18384;48.860;9.188;2023-04-03T06:10:04;5.80;92.80
31819;DHT22;18384;48.860;9.188;2023-04-03T06:12:32;5.90;92.60
31819;DHT22;18384;48.860;9.188;2023-04-03T06:14:58;5.90;92.70
31819;DHT22;18384;48.860;9.188;2023-04-03T06:17:24;6.10;92.60
31819;DHT22;18384;48.860;9.188;2023-04-03T06:19:50;5.90;92.50
31819;DHT22;18384;48.860;9.188;2023-04-03T06:22:16;5.80;92.70
31819;DHT22;18384;48.860;9.188;2023-04-03T06:24:42;5.90;92.90
31819;DHT22;18384;48.860;9.188;2023-04-03T06:27:10;5.90;92.70
31819;DHT22;18384;48.860;9.188;2023-04-03T06:29:36;5.90;92.60
31819;DHT22;18384;48.860;9.188;2023-04-03T06:32:02;5.90;92.70
31819;DHT22;18384;48.860;9.188;2023-04-03T06:34:29;5.80;92.90
31819;DHT22;18384;48.860;9.188;2023-04-03T06:36:55;4.70;92.70
31819;DHT22;18384;48.860;9.188;2023-04-03T06:39:21;5.90;93.20
31819;DHT22;18384;48.860;9.188;2023-04-03T06:41:48;6.00;93.10
31819;DHT22;18384;48.860;9.188;2023-04-03T06:44:16;6.00;93.10
31819;DHT22;18384;48.860;9.188;2023-04-03T06:46:43;6.10;93.00
31819;DHT22;18384;48.860;9.188;2023-04-03T06:49:09;6.10;93.20
31819;DHT22;18384;48.860;9.188;2023-04-03T06:51:36;6.10;93.00
31819;DHT22;18384;48.860;9.188;2023-04-03T06:54:04;6.20;93.30
31819;DHT22;18384;48.860;9.188;2023-04-03T06:56:31;6.20;92.90
31819;DHT22;18384;48.860;9.188;2023-04-03T06:58:58;6.20;92.90
31819;DHT22;18384;48.860;9.188;2023-04-03T07:01:26;6.10;93.20
31819;DHT22;18384;48.860;9.188;2023-04-03T07:03:55;6.10;93.20
31819;DHT22;18384;48.860;9.188;2023-04-03T07:06:21;6.10;93.30
31819;DHT22;18384;48.860;9.188;2023-04-03T07:08:48;6.10;93.50
31819;DHT22;18384;48.860;9.188;2023-04-03T07:11:15;6.20;93.30
31819;DHT22;18384;48.860;9.188;2023-04-03T07:13:41;6.20;93.50
31819;DHT22;18384;48.860;9.188;2023-04-03T07:16:08;6.30;93.30
31819;DHT22;18384;48.860;9.188;2023-04-03T07:18:35;6.40;93.40
31819;DHT22;18384;48.860;9.188;2023-04-03T07:21:02;6.50;93.30
31819;DHT22;18384;48.860;9.188;2023-04-03T07:23:29;6.50;93.10
31819;DHT22;18384;48.860;9.188;2023-04-03T07:25:55;6.70;93.10
31819;DHT22;18384;48.860;9.188;2023-04-03T07:28:22;6.80;93.20
31819;DHT22;18384;48.860;9.188;2023-04-03T07:30:51;6.80;92.80
31819;DHT22;18384;48.860;9.188;2023-04-03T07:33:20;6.80;92.60
31819;DHT22;18384;48.860;9.188;2023-04-03T07:35:48;6.90;92.80
31819;DHT22;18384;48.860;9.188;2023-04-03T07:38:14;6.80;92.70
31819;DHT22;18384;48.860;9.188;2023-04-03T07:40:49;6.80;93.10
31819;DHT22;18384;48.860;9.188;2023-04-03T07:43:17;6.90;92.80
31819;DHT22;18384;48.860;9.188;2023-04-03T07:45:44;6.90;92.80
31819;DHT22;18384;48.860;9.188;2023-04-03T07:48:11;7.00;92.70
31819;DHT22;18384;48.860;9.188;2023-04-03T07:50:40;7.10;92.30
31819;DHT22;18384;48.860;9.188;2023-04-03T07:53:06;7.00;92.30
31819;DHT22;18384;48.860;9.188;2023-04-03T07:55:33;7.10;92.40
31819;DHT22;18384;48.860;9.188;2023-04-03T07:58:00;7.00;92.50
31819;DHT22;18384;48.860;9.188;2023-04-03T08:00:26;7.10;92.70
31819;DHT22;18384;48.860;9.188;2023-04-03T08:02:52;7.20;92.40
31819;DHT22;18384;48.860;9.188;2023-04-03T08:05:19;7.20;92.30
31819;DHT22;18384;48.860;9.188;2023-04-03T08:07:46;7.20;92.30
31819;DHT22;18384;48.860;9.188;2023-04-03T08:10:13;7.20;92.40
31819;DHT22;18384;48.860;9.188;2023-04-03T08:12:40;7.20;92.20
31819;DHT22;18384;48.860;9.188;2023-04-03T08:15:07;7.20;92.20
31819;DHT22;18384;48.860;9.188;2023-04-03T08:17:34;7.20;92.60
31819;DHT22;18384;48.860;9.188;2023-04-03T08:20:02;7.20;92.50
31819;DHT22;18384;48.860;9.188;2023-04-03T08:22:30;7.30;92.80
31819;DHT22;18384;48.860;9.188;2023-04-03T08:24:56;7.20;92.30
31819;DHT22;18384;48.860;9.188;2023-04-03T08:27:22;7.20;92.50
31819;DHT22;18384;48.860;9.188;2023-04-03T08:29:48;7.30;92.60
31819;DHT22;18384;48.860;9.188;2023-04-03T08:32:14;7.30;92.10
31819;DHT22;18384;48.860;9.188;2023-04-03T08:34:41;7.30;92.10
31819;DHT22;18384;48.860;9.188;2023-04-03T08:37:07;7.40;92.20
31819;DHT22;18384;48.860;9.188;2023-04-03T08:39:33;7.50;92.20
31819;DHT22;18384;48.860;9.188;2023-04-03T08:42:05;7.70;92.10
31819;DHT22;18384;48.860;9.188;2023-04-03T08:44:57;7.70;91.90
31819;DHT22;18384;48.860;9.188;2023-04-03T08:48:42;7.60;91.70
31819;DHT22;18384;48.860;9.188;2023-04-03T08:51:17;7.60;91.80
31819;DHT22;18384;48.860;9.188;2023-04-03T08:54:01;7.70;92.30
31819;DHT22;18384;48.860;9.188;2023-04-03T08:56:31;7.80;91.70
31819;DHT22;18384;48.860;9.188;2023-04-03T08:59:05;7.90;91.90
31819;DHT22;18384;48.860;9.188;2023-04-03T09:01:40;8.10;91.70
31819;DHT22;18384;48.860;9.188;2023-04-03T09:04:15;8.10;91.10
31819;DHT22;18384;48.860;9.188;2023-04-03T09:06:53;8.20;90.70
31819;DHT22;18384;48.860;9.188;2023-04-03T09:09:41;8.10;91.30
31819;DHT22;18384;48.860;9.188;2023-04-03T09:15:24;8.10;90.70
31819;DHT22;18384;48.860;9.188;2023-04-03T09:18:20;8.00;90.80
31819;DHT22;18384;48.860;9.188;2023-04-03T09:21:38;8.00;91.00
31819;DHT22;18384;48.860;9.188;2023-04-03T09:24:10;8.00;90.90
31819;DHT22;18384;48.860;9.188;2023-04-03T09:27:07;8.10;90.60
31819;DHT22;18384;48.860;9.188;2023-04-03T09:29:40;8.10;90.90
31819;DHT22;18384;48.860;9.188;2023-04-03T09:32:34;8.10;90.60
31819;DHT22;18384;48.860;9.188;2023-04-03T09:35:27;8.20;90.40
31819;DHT22;18384;48.860;9.188;2023-04-03T09:38:13;8.20;90.20
31819;DHT22;18384;48.860;9.188;2023-04-03T09:41:03;8.30;90.40
31819;DHT22;18384;48.860;9.188;2023-04-03T09:43:38;8.40;90.20
31819;DHT22;18384;48.860;9.188;2023-04-03T09:46:25;8.30;89.70
31819;DHT22;18384;48.860;9.188;2023-04-03T09:49:00;8.10;89.40
31819;DHT22;18384;48.860;9.188;2023-04-03T09:51:29;8.10;90.30
31819;DHT22;18384;48.860;9.188;2023-04-03T09:53:57;8.10;90.30
31819;DHT22;18384;48.860;9.188;2023-04-03T09:56:32;8.20;90.30
31819;DHT22;18384;48.860;9.188;2023-04-03T09:59:12;8.30;90.30
31819;DHT22;18384;48.860;9.188;2023-04-03T10:01:43;8.50;90.00
31819;DHT22;18384;48.860;9.188;2023-04-03T10:04:22;8.50;88.60
31819;DHT22;18384;48.860;9.188;2023-04-03T10:06:54;8.60;89.20
31819;DHT22;18384;48.860;9.188;2023-04-03T10:09:26;8.50;89.20
31819;DHT22;18384;48.860;9.188;2023-04-03T10:12:30;8.60;88.80
31819;DHT22;18384;48.860;9.188;2023-04-03T10:14:59;8.60;89.40
31819;DHT22;18384;48.860;9.188;2023-04-03T10:17:56;8.60;87.90
31819;DHT22;18384;48.860;9.188;2023-04-03T10:20:42;8.50;87.10
31819;DHT22;18384;48.860;9.188;2023-04-03T10:23:21;8.40;88.10
31819;DHT22;18384;48.860;9.188;2023-04-03T10:26:29;8.40;87.40
31819;DHT22;18384;48.860;9.188;2023-04-03T10:29:51;8.50;87.30
31819;DHT22;18384;48.860;9.188;2023-04-03T10:36:23;8.40;87.30
31819;DHT22;18384;48.860;9.188;2023-04-03T10:39:21;8.50;86.20
31819;DHT22;18384;48.860;9.188;2023-04-03T10:43:42;8.40;86.20
31819;DHT22;18384;48.860;9.188;2023-04-03T10:46:51;8.60;83.80
31819;DHT22;18384;48.860;9.188;2023-04-03T10:50:36;8.50;85.00
31819;DHT22;18384;48.860;9.188;2023-04-03T10:53:26;8.50;85.10
31819;DHT22;18384;48.860;9.188;2023-04-03T10:56:29;8.40;85.00
31819;DHT22;18384;48.860;9.188;2023-04-03T10:59:47;8.30;85.20
31819;DHT22;18384;48.860;9.188;2023-04-03T11:02:33;8.30;84.90
31819;DHT22;18384;48.860;9.188;2023-04-03T11:05:21;8.30;85.00
31819;DHT22;18384;48.860;9.188;2023-04-03T11:08:02;8.30;85.20
31819;DHT22;18384;48.860;9.188;2023-04-03T11:10:53;8.40;85.10
31819;DHT22;18384;48.860;9.188;2023-04-03T11:13:35;8.60;84.30
31819;DHT22;18384;48.860;9.188;2023-04-03T11:16:07;8.60;83.40
31819;DHT22;18384;48.860;9.188;2023-04-03T11:18:56;8.60;83.40
31819;DHT22;18384;48.860;9.188;2023-04-03T11:22:39;8.60;83.10
31819;DHT22;18384;48.860;9.188;2023-04-03T11:25:25;8.60;82.90
31819;DHT22;18384;48.860;9.188;2023-04-03T11:28:04;8.50;83.60
31819;DHT22;18384;48.860;9.188;2023-04-03T11:30:45;8.50;82.90
31819;DHT22;18384;48.860;9.188;2023-04-03T11:37:51;8.20;84.40
31819;DHT22;18384;48.860;9.188;2023-04-03T11:40:25;8.20;84.70
31819;DHT22;18384;48.860;9.188;2023-04-03T11:43:07;8.30;85.40
31819;DHT22;18384;48.860;9.188;2023-04-03T11:46:02;8.40;84.20
31819;DHT22;18384;48.860;9.188;2023-04-03T11:48:51;8.50;83.80
31819;DHT22;18384;48.860;9.188;2023-04-03T11:51:41;8.40;84.40
31819;DHT22;18384;48.860;9.188;2023-04-03T11:54:42;8.40;85.10
31819;DHT22;18384;48.860;9.188;2023-04-03T11:58:03;8.40;84.60
31819;DHT22;18384;48.860;9.188;2023-04-03T12:01:43;8.40;83.70
31819;DHT22;18384;48.860;9.188;2023-04-03T12:04:28;8.50;83.80
31819;DHT22;18384;48.860;9.188;2023-04-03T12:07:01;8.50;83.50
31819;DHT22;18384;48.860;9.188;2023-04-03T12:10:01;8.40;82.50
31819;DHT22;18384;48.860;9.188;2023-04-03T12:12:40;8.40;82.60
31819;DHT22;18384;48.860;9.188;2023-04-03T12:15:26;8.60;81.70
31819;DHT22;18384;48.860;9.188;2023-04-03T12:18:41;8.60;80.70
31819;DHT22;18384;48.860;9.188;2023-04-03T12:25:01;8.70;80.70
31819;DHT22;18384;48.860;9.188;2023-04-03T12:28:13;8.70;81.20
31819;DHT22;18384;48.860;9.188;2023-04-03T12:30:42;8.80;80.60
31819;DHT22;18384;48.860;9.188;2023-04-03T12:33:30;8.70;80.70
31819;DHT22;18384;48.860;9.188;2023-04-03T12:39:53;8.70;82.80
31819;DHT22;18384;48.860;9.188;2023-04-03T12:42:42;8.90;81.10
31819;DHT22;18384;48.860;9.188;2023-04-03T12:45:46;8.90;80.30
31819;DHT22;18384;48.860;9.188;2023-04-03T12:48:32;9.00;79.90
31819;DHT22;18384;48.860;9.188;2023-04-03T12:51:03;8.90;79.60
31819;DHT22;18384;48.860;9.188;2023-04-03T12:53:35;8.90;81.30
31819;DHT22;18384;48.860;9.188;2023-04-03T12:56:24;9.00;79.90
31819;DHT22;18384;48.860;9.188;2023-04-03T12:59:13;9.00;80.20
31819;DHT22;18384;48.860;9.188;2023-04-03T13:01:56;9.00;79.90
31819;DHT22;18384;48.860;9.188;2023-04-03T13:04:25;8.90;79.80
31819;DHT22;18384;48.860;9.188;2023-04-03T13:06:52;8.90;79.80
31819;DHT22;18384;48.860;9.188;2023-04-03T13:09:36;8.90;80.40
31819;DHT22;18384;48.860;9.188;2023-04-03T13:12:11;8.90;80.60
31819;DHT22;18384;48.860;9.188;2023-04-03T13:14:39;8.90;80.70
31819;DHT22;18384;48.860;9.188;2023-04-03T13:17:13;8.90;80.20
31819;DHT22;18384;48.860;9.188;2023-04-03T13:19:41;8.90;80.50
31819;DHT22;18384;48.860;9.188;2023-04-03T13:22:23;8.80;80.10
31819;DHT22;18384;48.860;9.188;2023-04-03T13:24:57;8.80;79.90
31819;DHT22;18384;48.860;9.188;2023-04-03T13:27:25;8.90;79.60
31819;DHT22;18384;48.860;9.188;2023-04-03T13:29:54;8.90;80.00
31819;DHT22;18384;48.860;9.188;2023-04-03T13:32:25;9.10;79.30
31819;DHT22;18384;48.860;9.188;2023-04-03T13:34:53;9.20;79.00
31819;DHT22;18384;48.860;9.188;2023-04-03T13:37:32;10.50;78.50
31819;DHT22;18384;48.860;9.188;2023-04-03T13:40:33;9.40;78.60
31819;DHT22;18384;48.860;9.188;2023-04-03T13:43:25;9.60;77.70
31819;DHT22;18384;48.860;9.188;2023-04-03T13:46:04;9.70;75.60
31819;DHT22;18384;48.860;9.188;2023-04-03T13:48:54;9.60;76.30
31819;DHT22;18384;48.860;9.188;2023-04-03T13:51:27;9.50;76.00
31819;DHT22;18384;48.860;9.188;2023-04-03T13:54:00;9.40;76.60
31819;DHT22;18384;48.860;9.188;2023-04-03T13:56:37;9.40;78.20
31819;DHT22;18384;48.860;9.188;2023-04-03T14:05:08;9.40;77.00
31819;DHT22;18384;48.860;9.188;2023-04-03T14:07:34;9.50;76.10
31819;DHT22;18384;48.860;9.188;2023-04-03T14:10:00;9.40;75.50
31819;DHT22;18384;48.860;9.188;2023-04-03T14:12:31;9.40;76.10
31819;DHT22;18384;48.860;9.188;2023-04-03T14:15:01;9.50;76.50
31819;DHT22;18384;48.860;9.188;2023-04-03T14:17:30;9.40;76.10
31819;DHT22;18384;48.860;9.188;2023-04-03T14:19:57;9.20;76.40
31819;DHT22;18384;48.860;9.188;2023-04-03T14:22:27;9.10;75.60
31819;DHT22;18384;48.860;9.188;2023-04-03T14:24:56;9.10;75.50
31819;DHT22;18384;48.860;9.188;2023-04-03T14:27:30;9.20;74.50
31819;DHT22;18384;48.860;9.188;2023-04-03T14:30:00;9.30;75.00
31819;DHT22;18384;48.860;9.188;2023-04-03T14:32:29;9.30;75.90
31819;DHT22;18384;48.860;9.188;2023-04-03T14:34:55;9.30;73.50
31819;DHT22;18384;48.860;9.188;2023-04-03T14:37:26;9.20;73.90
31819;DHT22;18384;48.860;9.188;2023-04-03T14:39:56;9.10;75.20
31819;DHT22;18384;48.860;9.188;2023-04-03T14:42:26;8.90;74.70
31819;DHT22;18384;48.860;9.188;2023-04-03T14:44:58;8.90;75.20
31819;DHT22;18384;48.860;9.188;2023-04-03T14:47:28;9.00;74.90
31819;DHT22;18384;48.860;9.188;2023-04-03T14:49:55;9.00;74.70
31819;DHT22;18384;48.860;9.188;2023-04-03T14:52:28;9.10;74.10
31819;DHT22;18384;48.860;9.188;2023-04-03T14:54:58;9.10;74.50
31819;DHT22;18384;48.860;9.188;2023-04-03T14:57:27;9.00;74.20
31819;DHT22;18384;48.860;9.188;2023-04-03T14:59:54;8.90;74.90
31819;DHT22;18384;48.860;9.188;2023-04-03T15:02:32;8.80;74.40
31819;DHT22;18384;48.860;9.188;2023-04-03T15:05:05;8.70;74.30
31819;DHT22;18384;48.860;9.188;2023-04-03T15:07:35;8.60;75.10
31819;DHT22;18384;48.860;9.188;2023-04-03T15:10:20;8.70;74.00
31819;DHT22;18384;48.860;9.188;2023-04-03T15:12:50;8.90;74.50
31819;DHT22;18384;48.860;9.188;2023-04-03T15:15:18;9.00;74.60
31819;DHT22;18384;48.860;9.188;2023-04-03T15:17:46;9.00;74.20
31819;DHT22;18384;48.860;9.188;2023-04-03T15:20:17;9.10;75.20
31819;DHT22;18384;48.860;9.188;2023-04-03T15:22:44;9.10;74.60
31819;DHT22;18384;48.860;9.188;2023-04-03T15:25:11;9.00;74.50
31819;DHT22;18384;48.860;9.188;2023-04-03T15:27:38;8.90;75.80
31819;DHT22;18384;48.860;9.188;2023-04-03T15:30:10;8.80;75.70
31819;DHT22;18384;48.860;9.188;2023-04-03T15:32:39;8.60;75.30
31819;DHT22;18384;48.860;9.188;2023-04-03T15:35:06;8.40;74.20
31819;DHT22;18384;48.860;9.188;2023-04-03T15:37:32;8.20;74.90
31819;DHT22;18384;48.860;9.188;2023-04-03T15:39:58;8.00;76.40
31819;DHT22;18384;48.860;9.188;2023-04-03T15:42:24;8.10;77.20
31819;DHT22;18384;48.860;9.188;2023-04-03T15:44:50;8.20;74.60
31819;DHT22;18384;48.860;9.188;2023-04-03T15:47:17;8.20;74.40
31819;DHT22;18384;48.860;9.188;2023-04-03T15:49:45;8.40;75.30
31819;DHT22;18384;48.860;9.188;2023-04-03T15:52:11;8.60;75.30
31819;DHT22;18384;48.860;9.188;2023-04-03T15:54:37;8.70;72.70
31819;DHT22;18384;48.860;9.188;2023-04-03T15:57:04;8.90;72.90
31819;DHT22;18384;48.860;9.188;2023-04-03T15:59:30;9.00;76.40
31819;DHT22;18384;48.860;9.188;2023-04-03T16:01:59;9.10;73.40
31819;DHT22;18384;48.860;9.188;2023-04-03T16:04:27;9.10;75.00
31819;DHT22;18384;48.860;9.188;2023-04-03T16:06:54;9.00;74.60
31819;DHT22;18384;48.860;9.188;2023-04-03T16:09:20;8.80;74.80
31819;DHT22;18384;48.860;9.188;2023-04-03T16:11:46;8.60;73.30
31819;DHT22;18384;48.860;9.188;2023-04-03T16:14:12;8.40;73.90
31819;DHT22;18384;48.860;9.188;2023-04-03T16:16:39;8.30;74.20
31819;DHT22;18384;48.860;9.188;2023-04-03T16:19:05;8.10;73.70
31819;DHT22;18384;48.860;9.188;2023-04-03T16:21:32;8.10;73.40
31819;DHT22;18384;48.860;9.188;2023-04-03T16:23:59;8.10;74.20
31819;DHT22;18384;48.860;9.188;2023-04-03T16:26:26;8.10;74.40
31819;DHT22;18384;48.860;9.188;2023-04-03T16:28:53;8.10;74.30
31819;DHT22;18384;48.860;9.188;2023-04-03T16:31:20;8.20;75.50
31819;DHT22;18384;48.860;9.188;2023-04-03T16:33:47;8.30;77.40
31819;DHT22;18384;48.860;9.188;2023-04-03T16:36:13;8.40;75.00
31819;DHT22;18384;48.860;9.188;2023-04-03T16:38:40;8.40;74.60
31819;DHT22;18384;48.860;9.188;2023-04-03T16:41:06;8.30;75.00
31819;DHT22;18384;48.860;9.188;2023-04-03T16:43:33;8.20;75.50
31819;DHT22;18384;48.860;9.188;2023-04-03T16:46:02;8.10;75.40
31819;DHT22;18384;48.860;9.188;2023-04-03T16:48:29;8.10;75.90